KLNL

Kings Land O' Lakes Airport

Land O' Lakes, Wisconsin, USA
METAR KLNL 122055Z AUTO 00000KT 7SM OVC006 M01/M03 A2976 RMK AO2 T10131026
Observed Flight Rules
Dec-12 @ 20:55 UTC (13 minutes ago) Instrument Flight Rules
Visibility Clouds
7 miles
  • Overcast at 600' AGL
Temperatures Readings
Current -1°C / 30°F
Dewpoint -3°C / 27°F
Humidity 86%
Altimeter 29.76" Hg
Pressure 1008 hPa
Elevation 520
METAR KLNL 122055Z AUTO 00000KT 7SM OVC006 M01/M03 A2976 RMK AO2 T10131026
Observed Flight Rules
Dec-12 @ 20:55 UTC
(13 minutes ago)
IFR
Clouds
  • Overcast at 600' AGL
Temperature Dewpoint
-1°C / 30°F -3°C / 27°F
Humidity Altimeter Pressure
86% 29.76" Hg 1008 hPa